createdAt,value
2019-04-16T00:01:46.748Z,78.70
2019-04-16T00:04:22.255Z,79.30
2019-04-16T00:06:56.931Z,81.20
2019-04-16T00:09:28.795Z,80.30
2019-04-16T00:12:16.107Z,80.30
2019-04-16T00:14:53.009Z,80.70
2019-04-16T00:17:22.358Z,81.80
2019-04-16T00:19:51.728Z,82.60
2019-04-16T00:22:25.356Z,82.10
2019-04-16T00:24:54.670Z,81.60
2019-04-16T00:27:28.302Z,82.30
2019-04-16T00:29:56.073Z,82.10
2019-04-16T00:32:27.040Z,81.90
2019-04-16T00:34:56.458Z,83.10
2019-04-16T00:37:25.805Z,83.10
2019-04-16T00:39:56.036Z,84.30
2019-04-16T00:42:26.376Z,83.90
2019-04-16T00:44:55.695Z,84.50
2019-04-16T00:47:26.133Z,85.40
2019-04-16T00:49:59.483Z,85.60
2019-04-16T00:52:29.942Z,87.00
2019-04-16T00:54:59.927Z,85.70
2019-04-16T00:57:30.145Z,86.60
2019-04-16T01:00:51.612Z,86.30
2019-04-16T01:03:20.996Z,86.30
2019-04-16T01:09:49.896Z,87.10
2019-04-16T01:12:19.201Z,87.50
2019-04-16T01:14:48.590Z,88.10
2019-04-16T01:17:17.891Z,89.00
2019-04-16T01:19:47.215Z,89.50
2019-04-16T01:22:16.864Z,88.40
2019-04-16T01:24:46.288Z,88.90
2019-04-16T01:27:16.062Z,89.50
2019-04-16T01:29:46.325Z,88.90
2019-04-16T01:32:20.006Z,89.80
2019-04-16T01:35:03.126Z,89.40
2019-04-16T01:37:34.227Z,90.10
2019-04-16T01:40:06.027Z,90.20
2019-04-16T01:42:35.333Z,90.00
2019-04-16T01:45:06.183Z,90.00
2019-04-16T01:47:37.109Z,90.20
2019-04-16T01:50:06.866Z,90.10
2019-04-16T01:52:36.173Z,90.30
2019-04-16T01:55:05.960Z,90.60
2019-04-16T01:57:35.268Z,90.70
2019-04-16T02:00:08.593Z,90.50
2019-04-16T02:02:39.237Z,90.50
2019-04-16T02:05:08.615Z,90.40
2019-04-16T02:07:37.922Z,90.30
2019-04-16T02:10:08.061Z,90.50
2019-04-16T02:12:37.656Z,90.60
2019-04-16T02:15:08.825Z,90.30
2019-04-16T02:17:38.171Z,90.60
2019-04-16T02:20:07.660Z,90.30
2019-04-16T02:22:37.016Z,90.50
2019-04-16T02:25:06.864Z,90.30
2019-04-16T02:27:36.176Z,90.40
2019-04-16T02:30:06.906Z,90.20
2019-04-16T02:32:36.288Z,90.20
2019-04-16T02:35:07.021Z,90.10
2019-04-16T02:37:37.637Z,90.10
2019-04-16T02:40:08.434Z,90.20
2019-04-16T02:42:37.729Z,90.00
2019-04-16T02:45:07.414Z,90.30
2019-04-16T02:47:41.770Z,90.00
2019-04-16T02:50:10.598Z,90.00
2019-04-16T02:52:50.405Z,90.40
2019-04-16T02:55:20.195Z,90.30
2019-04-16T02:58:01.371Z,90.40
2019-04-16T03:00:32.721Z,90.50
2019-04-16T03:03:09.815Z,90.70
2019-04-16T03:05:40.842Z,90.70
2019-04-16T03:08:10.243Z,90.70
2019-04-16T03:10:41.843Z,90.90
2019-04-16T03:13:13.195Z,90.60
2019-04-16T03:15:47.086Z,90.70
2019-04-16T03:18:18.017Z,90.70
2019-04-16T03:20:47.303Z,90.80
2019-04-16T03:23:16.596Z,91.00
2019-04-16T03:25:45.904Z,91.00
2019-04-16T03:28:15.327Z,91.30
2019-04-16T03:30:44.697Z,91.00
2019-04-16T03:33:15.654Z,91.30
2019-04-16T03:35:45.007Z,91.10
2019-04-16T03:38:14.319Z,91.40
2019-04-16T03:40:43.625Z,91.30
2019-04-16T03:43:12.932Z,91.50
2019-04-16T03:45:42.231Z,91.60
2019-04-16T03:48:11.529Z,91.70
2019-04-16T03:50:40.843Z,91.80
2019-04-16T03:53:10.865Z,91.80
2019-04-16T03:55:41.137Z,91.80
2019-04-16T03:58:11.066Z,91.80
2019-04-16T04:00:44.291Z,91.70
2019-04-16T04:03:12.461Z,91.90
2019-04-16T04:05:43.489Z,91.80
2019-04-16T04:12:04.401Z,91.80
2019-04-16T04:14:33.742Z,92.30
2019-04-16T04:17:06.586Z,92.90
2019-04-16T04:19:34.073Z,92.50
2019-04-16T04:22:03.391Z,92.20
2019-04-16T04:24:32.725Z,92.20
2019-04-16T04:27:02.015Z,92.30
2019-04-16T04:29:31.349Z,92.40
2019-04-16T04:32:03.425Z,92.50
2019-04-16T04:34:31.672Z,92.60
2019-04-16T04:37:01.046Z,92.80
2019-04-16T04:39:30.418Z,92.80
2019-04-16T04:41:59.775Z,92.70
2019-04-16T04:44:29.104Z,92.70
2019-04-16T04:46:58.392Z,92.40
2019-04-16T04:49:30.411Z,92.10
2019-04-16T04:51:58.707Z,92.10
2019-04-16T04:54:28.028Z,92.10
2019-04-16T04:56:59.279Z,92.10
2019-04-16T04:59:28.420Z,92.10
2019-04-16T05:01:57.740Z,92.30
2019-04-16T05:04:28.691Z,92.20
2019-04-16T05:07:04.708Z,92.00
2019-04-16T05:09:36.415Z,92.10
2019-04-16T05:12:03.953Z,91.80
2019-04-16T05:14:33.188Z,91.70
2019-04-16T05:17:03.628Z,91.60
2019-04-16T05:19:33.574Z,91.20
2019-04-16T05:22:02.913Z,90.80
2019-04-16T05:24:32.227Z,90.60
2019-04-16T05:27:01.537Z,90.30
2019-04-16T05:29:30.909Z,89.80
2019-04-16T05:32:00.236Z,88.10
2019-04-16T05:34:29.525Z,87.90
2019-04-16T05:37:01.312Z,87.20
2019-04-16T05:39:29.954Z,86.20
2019-04-16T05:41:59.285Z,84.70
2019-04-16T05:44:33.212Z,84.20
2019-04-16T05:46:58.901Z,83.00
2019-04-16T05:49:28.221Z,81.70
2019-04-16T05:51:57.510Z,80.80
2019-04-16T05:54:31.014Z,80.30
2019-04-16T05:57:01.959Z,81.40
2019-04-16T05:59:33.532Z,80.90
2019-04-16T06:02:03.081Z,80.40
2019-04-16T06:04:32.402Z,78.90
2019-04-16T06:07:03.689Z,78.50
2019-04-16T06:09:32.709Z,78.00
2019-04-16T06:12:02.013Z,76.80
2019-04-16T06:14:41.810Z,78.50
2019-04-16T06:17:15.150Z,79.40
2019-04-16T06:20:01.271Z,78.40
2019-04-16T06:22:48.464Z,77.30
2019-04-16T06:25:25.978Z,76.20
2019-04-16T06:28:13.515Z,75.20
2019-04-16T06:30:50.173Z,75.00
2019-04-16T06:33:40.550Z,72.70
2019-04-16T06:36:26.939Z,69.00
2019-04-16T06:39:10.777Z,69.30
2019-04-16T06:41:47.464Z,68.10
2019-04-16T06:44:14.629Z,65.50
2019-04-16T06:46:48.446Z,64.00
2019-04-16T06:49:19.405Z,62.90
2019-04-16T06:52:06.353Z,60.80
2019-04-16T06:54:49.423Z,62.30
2019-04-16T06:57:27.016Z,59.40
2019-04-16T07:00:07.136Z,58.30
2019-04-16T07:02:40.703Z,56.70
2019-04-16T07:05:32.122Z,57.20
2019-04-16T07:08:18.518Z,57.10
2019-04-16T07:10:54.252Z,55.80
2019-04-16T07:13:23.585Z,53.80
2019-04-16T07:15:56.405Z,53.90
2019-04-16T07:18:23.922Z,53.30
2019-04-16T07:20:53.243Z,52.60
2019-04-16T07:23:24.742Z,52.80
2019-04-16T07:25:53.654Z,52.00
2019-04-16T07:28:25.825Z,52.00
2019-04-16T07:31:03.217Z,50.40
2019-04-16T07:33:37.488Z,50.50
2019-04-16T07:36:08.521Z,48.40
2019-04-16T07:38:51.244Z,50.00
2019-04-16T07:41:22.236Z,46.70
2019-04-16T07:44:10.255Z,46.40
2019-04-16T07:46:37.551Z,45.50
2019-04-16T07:49:23.478Z,44.20
2019-04-16T07:52:12.157Z,44.40
2019-04-16T07:54:54.416Z,46.40
2019-04-16T07:57:23.737Z,44.00
2019-04-16T07:59:53.040Z,45.00
2019-04-16T08:02:22.469Z,46.20
2019-04-16T08:04:51.842Z,45.00
2019-04-16T08:07:21.364Z,45.50
2019-04-16T08:09:50.907Z,44.70
2019-04-16T08:12:30.021Z,45.30
2019-04-16T08:14:50.503Z,44.40
2019-04-16T08:17:20.719Z,45.30
2019-04-16T08:19:50.026Z,44.10
2019-04-16T08:22:19.499Z,44.80
2019-04-16T08:24:59.744Z,44.50
2019-04-16T08:27:27.650Z,44.50
2019-04-16T08:30:02.191Z,42.90
2019-04-16T08:32:29.757Z,43.30
2019-04-16T08:35:00.428Z,41.20
2019-04-16T08:37:29.806Z,39.70
2019-04-16T08:39:59.113Z,38.10
2019-04-16T08:42:30.793Z,40.50
2019-04-16T08:45:00.379Z,38.70
2019-04-16T08:47:29.763Z,40.00
2019-04-16T08:49:59.073Z,40.60
2019-04-16T08:52:28.380Z,39.00
2019-04-16T08:54:57.700Z,37.50
2019-04-16T08:57:31.782Z,39.20
2019-04-16T08:59:58.013Z,38.50
2019-04-16T09:02:27.860Z,39.80
2019-04-16T09:04:57.167Z,39.10
2019-04-16T09:07:42.329Z,40.10
2019-04-16T09:10:18.115Z,38.50
2019-04-16T09:12:50.764Z,40.40
2019-04-16T09:15:23.337Z,37.80
2019-04-16T09:17:54.287Z,39.30
2019-04-16T09:20:25.242Z,38.40
2019-04-16T09:22:54.715Z,37.30
2019-04-16T09:25:45.724Z,36.00
2019-04-16T09:28:25.684Z,38.00
2019-04-16T09:31:07.256Z,39.00
2019-04-16T09:33:47.183Z,36.40
2019-04-16T09:36:24.063Z,35.20
2019-04-16T09:38:55.020Z,34.10
2019-04-16T09:41:34.967Z,36.30
2019-04-16T09:44:04.355Z,34.00
2019-04-16T09:46:50.290Z,32.50
2019-04-16T09:49:05.954Z,34.90
2019-04-16T09:51:36.483Z,33.80
2019-04-16T09:54:06.687Z,32.10
2019-04-16T09:56:36.930Z,33.90
2019-04-16T09:59:11.033Z,32.80
2019-04-16T10:01:49.961Z,31.70
2019-04-16T10:04:20.246Z,31.20
2019-04-16T10:06:49.565Z,34.00
2019-04-16T10:09:21.611Z,33.40
2019-04-16T10:11:49.937Z,32.10
2019-04-16T10:14:19.251Z,32.50
2019-04-16T10:16:48.626Z,33.30
2019-04-16T10:19:21.108Z,30.80
2019-04-16T10:21:53.416Z,33.10
2019-04-16T10:24:21.706Z,30.30
2019-04-16T10:26:51.894Z,33.40
2019-04-16T10:29:22.878Z,32.40
2019-04-16T10:31:53.580Z,33.50
2019-04-16T10:34:22.905Z,30.30
2019-04-16T10:36:52.316Z,32.10
2019-04-16T10:39:39.693Z,32.80
2019-04-16T10:42:14.722Z,32.50
2019-04-16T10:44:45.679Z,31.10
2019-04-16T10:47:20.502Z,32.10
2019-04-16T10:50:09.123Z,30.60
2019-04-16T10:52:54.004Z,30.30
2019-04-16T10:55:21.527Z,31.90
2019-04-16T10:57:52.571Z,31.90
2019-04-16T11:00:29.998Z,33.10
2019-04-16T11:03:03.745Z,31.70
2019-04-16T11:05:37.386Z,30.20
2019-04-16T11:08:08.195Z,32.20
2019-04-16T11:10:37.619Z,29.30
2019-04-16T11:13:08.693Z,30.20
2019-04-16T11:15:37.850Z,28.90
2019-04-16T11:18:07.451Z,28.40
2019-04-16T11:20:36.831Z,28.70
2019-04-16T11:23:07.498Z,29.40
2019-04-16T11:25:37.167Z,30.80
2019-04-16T11:28:06.496Z,30.80
2019-04-16T11:30:40.137Z,28.20
2019-04-16T11:33:09.667Z,29.20
2019-04-16T11:35:39.124Z,28.70
2019-04-16T11:38:08.453Z,29.30
2019-04-16T11:40:40.960Z,30.00
2019-04-16T11:43:08.841Z,29.70
2019-04-16T11:45:38.185Z,29.60
2019-04-16T11:48:07.578Z,29.80
2019-04-16T11:50:37.017Z,28.80
2019-04-16T11:53:06.358Z,29.20
2019-04-16T11:55:35.718Z,29.80
2019-04-16T11:58:06.679Z,28.80
2019-04-16T12:00:46.439Z,28.00
2019-04-16T12:03:17.415Z,27.20
2019-04-16T12:06:00.311Z,28.10
2019-04-16T12:08:31.339Z,27.20
2019-04-16T12:11:18.401Z,27.40
2019-04-16T12:13:49.487Z,28.00
2019-04-16T12:16:38.709Z,29.10
2019-04-16T12:19:25.990Z,27.70
2019-04-16T12:22:11.954Z,28.20
2019-04-16T12:24:51.993Z,26.30
2019-04-16T12:27:39.118Z,27.20
2019-04-16T12:30:25.887Z,27.10
2019-04-16T12:32:56.840Z,27.40
2019-04-16T12:35:45.346Z,27.50
2019-04-16T12:38:18.737Z,26.30
2019-04-16T12:40:58.814Z,26.90
2019-04-16T12:43:35.772Z,27.20
2019-04-16T12:46:09.383Z,28.20
2019-04-16T12:48:55.173Z,27.80
2019-04-16T12:51:28.729Z,27.40
2019-04-16T12:54:17.883Z,28.10
2019-04-16T12:56:57.951Z,28.90
2019-04-16T12:59:40.380Z,29.50
2019-04-16T13:02:29.276Z,32.00
2019-04-16T13:05:00.411Z,31.60
2019-04-16T13:07:41.419Z,31.00
2019-04-16T13:10:14.988Z,31.20
2019-04-16T13:12:52.546Z,32.40
2019-04-16T13:15:29.204Z,31.20
2019-04-16T13:18:05.995Z,30.90
2019-04-16T13:20:39.564Z,31.30
2019-04-16T13:23:19.407Z,31.40
2019-04-16T13:25:56.877Z,31.40
2019-04-16T13:28:26.591Z,32.40
2019-04-16T13:30:55.918Z,33.10
2019-04-16T13:33:25.333Z,32.80
2019-04-16T13:35:54.650Z,33.50
2019-04-16T13:38:25.596Z,33.60
2019-04-16T13:40:54.912Z,34.20
2019-04-16T13:43:33.710Z,33.20
2019-04-16T13:46:02.779Z,34.50
2019-04-16T13:48:36.507Z,34.40
2019-04-16T13:51:12.663Z,34.00
2019-04-16T13:53:40.120Z,33.20
2019-04-16T13:56:23.124Z,35.20
2019-04-16T13:58:56.137Z,33.20
2019-04-16T14:01:32.807Z,33.60
2019-04-16T14:04:02.230Z,34.50
2019-04-16T14:06:31.561Z,35.50
2019-04-16T14:09:00.921Z,37.00
2019-04-16T14:11:31.859Z,36.30
2019-04-16T14:14:01.196Z,37.40
2019-04-16T14:16:30.520Z,37.80
2019-04-16T14:19:02.527Z,38.60
2019-04-16T14:21:30.831Z,39.20
2019-04-16T14:24:00.669Z,39.00
2019-04-16T14:26:30.037Z,38.00
2019-04-16T14:28:59.369Z,38.40
2019-04-16T14:31:28.684Z,38.90
2019-04-16T14:34:05.711Z,39.80
2019-04-16T14:36:35.038Z,38.70
2019-04-16T14:39:14.305Z,38.10
2019-04-16T14:41:48.765Z,39.30
2019-04-16T14:44:15.854Z,39.30
2019-04-16T14:46:45.083Z,39.20
2019-04-16T14:49:15.050Z,38.30
2019-04-16T14:51:45.402Z,38.60
2019-04-16T14:54:25.575Z,39.00
2019-04-16T14:56:57.361Z,40.80
2019-04-16T14:59:43.838Z,39.80
2019-04-16T15:02:17.380Z,39.70
2019-04-16T15:05:03.368Z,40.30
2019-04-16T15:07:43.941Z,41.80
2019-04-16T15:10:13.292Z,40.90
2019-04-16T15:12:48.112Z,41.50
2019-04-16T15:15:21.992Z,40.60
2019-04-16T15:18:10.932Z,41.40
2019-04-16T15:20:58.064Z,41.90
2019-04-16T15:23:36.158Z,40.80
2019-04-16T15:26:16.132Z,40.70
2019-04-16T15:29:02.337Z,40.90
2019-04-16T15:31:33.700Z,42.00
2019-04-16T15:34:11.136Z,41.60
2019-04-16T15:36:41.024Z,42.60
2019-04-16T15:39:14.601Z,40.80
2019-04-16T15:41:48.528Z,40.90
2019-04-16T15:44:37.499Z,41.20
2019-04-16T15:47:24.605Z,41.40
2019-04-16T15:50:02.443Z,41.30
2019-04-16T15:52:33.375Z,41.90
2019-04-16T15:55:24.010Z,42.70
2019-04-16T15:57:55.508Z,42.20
2019-04-16T16:00:26.625Z,42.50
2019-04-16T16:02:57.723Z,42.00
2019-04-16T16:05:34.509Z,42.00
2019-04-16T16:08:05.511Z,44.00
2019-04-16T16:10:51.609Z,42.20
2019-04-16T16:13:22.650Z,43.00
2019-04-16T16:15:51.244Z,43.80
2019-04-16T16:18:20.492Z,44.60
2019-04-16T16:20:49.789Z,44.10
2019-04-16T16:23:19.094Z,44.60
2019-04-16T16:25:48.413Z,44.50
2019-04-16T16:28:17.761Z,45.50
2019-04-16T16:30:47.141Z,45.00
2019-04-16T16:33:16.466Z,45.00
2019-04-16T16:35:57.510Z,44.90
2019-04-16T16:38:20.548Z,45.10
2019-04-16T16:40:49.731Z,45.60
2019-04-16T16:43:18.784Z,46.50
2019-04-16T16:45:55.435Z,46.40
2019-04-16T16:48:25.409Z,46.70
2019-04-16T16:50:54.718Z,47.90
2019-04-16T16:53:28.113Z,48.50
2019-04-16T16:55:59.045Z,50.20
2019-04-16T16:58:36.087Z,50.00
2019-04-16T17:01:21.984Z,50.90
2019-04-16T17:03:53.025Z,51.80
2019-04-16T17:06:24.037Z,52.30
2019-04-16T17:08:53.335Z,52.30
2019-04-16T17:11:22.622Z,52.70
2019-04-16T17:13:52.782Z,52.70
2019-04-16T17:16:22.019Z,53.10
2019-04-16T17:18:51.321Z,53.80
2019-04-16T17:21:20.630Z,54.20
2019-04-16T17:23:49.925Z,54.60
2019-04-16T17:26:19.253Z,55.00
2019-04-16T17:28:48.584Z,55.60
2019-04-16T17:31:17.987Z,56.10
2019-04-16T17:33:47.300Z,57.20
2019-04-16T17:36:16.618Z,57.50
2019-04-16T17:38:46.065Z,58.20
2019-04-16T17:41:17.044Z,59.10
2019-04-16T17:44:02.220Z,59.60
2019-04-16T17:46:40.541Z,59.80
2019-04-16T17:49:11.481Z,59.50
2019-04-16T17:51:48.016Z,59.70
2019-04-16T17:54:18.980Z,60.80
2019-04-16T17:57:05.803Z,60.80
2019-04-16T17:59:36.672Z,61.10
2019-04-16T18:02:25.095Z,61.50
2019-04-16T18:04:56.558Z,62.40
2019-04-16T18:07:40.739Z,62.90
2019-04-16T18:10:17.530Z,62.90
2019-04-16T18:12:57.363Z,63.60
2019-04-16T18:15:31.203Z,63.70
2019-04-16T18:18:16.847Z,63.80
2019-04-16T18:20:57.156Z,64.80
2019-04-16T18:23:35.431Z,63.70
2019-04-16T18:26:22.742Z,63.80
2019-04-16T18:28:53.700Z,64.20
2019-04-16T18:31:41.291Z,65.40
2019-04-16T18:34:12.269Z,64.90
2019-04-16T18:36:48.744Z,65.30
2019-04-16T18:39:37.140Z,65.60
2019-04-16T18:42:04.704Z,65.60
2019-04-16T18:44:35.668Z,66.00
2019-04-16T18:47:22.914Z,65.70
2019-04-16T18:49:53.874Z,66.10
2019-04-16T18:52:23.169Z,66.30
2019-04-16T18:54:52.467Z,66.60
2019-04-16T18:57:21.771Z,66.90
2019-04-16T18:59:51.081Z,67.00
2019-04-16T19:02:20.378Z,67.20
2019-04-16T19:04:51.025Z,67.60
2019-04-16T19:07:19.658Z,68.10
2019-04-16T19:09:48.947Z,68.80
2019-04-16T19:12:18.259Z,69.10
2019-04-16T19:14:47.607Z,69.30
2019-04-16T19:17:17.104Z,70.30
2019-04-16T19:19:46.542Z,70.60
2019-04-16T19:22:15.881Z,71.60
2019-04-16T19:24:45.188Z,72.10
2019-04-16T19:27:14.512Z,72.90
2019-04-16T19:29:45.460Z,73.60
2019-04-16T19:32:15.080Z,74.10
2019-04-16T19:34:45.154Z,75.00
2019-04-16T19:37:14.662Z,75.30
2019-04-16T19:39:46.659Z,75.60
2019-04-16T19:42:16.260Z,76.20
2019-04-16T19:44:45.626Z,75.60
2019-04-16T19:47:15.024Z,75.90
2019-04-16T19:49:44.339Z,75.90
2019-04-16T19:52:14.267Z,75.90
2019-04-16T19:54:44.896Z,77.00
2019-04-16T19:57:14.335Z,75.80
2019-04-16T19:59:46.626Z,76.30
2019-04-16T20:02:15.333Z,76.70
2019-04-16T20:04:45.116Z,76.30
2019-04-16T20:07:15.276Z,77.10
2019-04-16T20:09:44.872Z,77.60
2019-04-16T20:12:15.203Z,77.70
2019-04-16T20:14:45.141Z,78.10
2019-04-16T20:17:15.412Z,78.20
2019-04-16T20:19:47.151Z,78.30
2019-04-16T20:22:16.498Z,77.50
2019-04-16T20:24:45.816Z,78.20
2019-04-16T20:27:19.445Z,78.20
2019-04-16T20:29:47.102Z,78.30
2019-04-16T20:32:16.413Z,79.00
2019-04-16T20:34:46.387Z,79.30
2019-04-16T20:37:16.618Z,79.40
2019-04-16T20:39:46.634Z,79.50
2019-04-16T20:42:16.896Z,79.40
2019-04-16T20:44:46.996Z,79.80
2019-04-16T20:47:17.276Z,79.70
2019-04-16T20:49:49.133Z,80.00
2019-04-16T20:52:19.435Z,80.20
2019-04-16T20:54:50.369Z,81.20
2019-04-16T20:57:19.682Z,80.90
2019-04-16T20:59:49.007Z,81.00
2019-04-16T21:02:18.298Z,81.20
2019-04-16T21:04:48.114Z,81.30
2019-04-16T21:07:18.328Z,81.40
2019-04-16T21:09:49.386Z,81.80
2019-04-16T21:12:18.685Z,82.00
2019-04-16T21:14:50.831Z,82.10
2019-04-16T21:17:19.689Z,82.20
2019-04-16T21:19:49.056Z,82.40
2019-04-16T21:22:19.146Z,82.60
2019-04-16T21:24:49.268Z,82.70
2019-04-16T21:27:19.496Z,82.80
2019-04-16T21:29:49.573Z,83.80
2019-04-16T21:32:24.140Z,83.20
2019-04-16T21:34:58.662Z,83.30
2019-04-16T21:37:39.685Z,83.30
2019-04-16T21:40:10.397Z,83.40
2019-04-16T21:42:39.687Z,83.70
2019-04-16T21:45:09.057Z,84.00
2019-04-16T21:47:38.361Z,84.20
2019-04-16T21:50:07.736Z,84.40
2019-04-16T21:52:37.038Z,84.70
2019-04-16T21:55:07.861Z,84.80
2019-04-16T21:57:37.191Z,85.20
2019-04-16T22:00:09.517Z,85.50
2019-04-16T22:02:41.310Z,85.40
2019-04-16T22:05:11.497Z,85.70
2019-04-16T22:07:40.842Z,85.40
2019-04-16T22:10:10.492Z,85.70
2019-04-16T22:12:39.829Z,86.00
2019-04-16T22:15:09.380Z,85.90
2019-04-16T22:17:38.664Z,86.20
2019-04-16T22:20:08.211Z,86.50
2019-04-16T22:22:38.494Z,86.60
2019-04-16T22:25:07.795Z,87.00
2019-04-16T22:27:39.826Z,86.90
2019-04-16T22:30:08.510Z,87.20
2019-04-16T22:32:37.960Z,87.20
2019-04-16T22:35:07.417Z,87.30
2019-04-16T22:37:36.708Z,87.60
2019-04-16T22:40:07.761Z,87.60
2019-04-16T22:42:41.598Z,87.70
2019-04-16T22:45:29.031Z,87.80
2019-04-16T22:47:59.297Z,88.20
2019-04-16T22:50:28.614Z,89.60
2019-04-16T22:52:57.905Z,89.10
2019-04-16T22:55:27.240Z,89.10
2019-04-16T22:57:56.557Z,89.10
2019-04-16T23:00:33.790Z,89.70
2019-04-16T23:03:03.113Z,89.80
2019-04-16T23:05:32.448Z,89.60
2019-04-16T23:08:01.751Z,89.70
2019-04-16T23:10:31.088Z,89.70
2019-04-16T23:13:01.622Z,89.90
2019-04-16T23:15:31.650Z,89.70
2019-04-16T23:18:00.956Z,89.60
2019-04-16T23:20:36.167Z,89.30
2019-04-16T23:23:01.327Z,88.90
2019-04-16T23:25:30.626Z,88.50
2019-04-16T23:27:59.940Z,88.40
2019-04-16T23:30:29.249Z,88.20
2019-04-16T23:33:00.133Z,88.10
2019-04-16T23:35:29.535Z,88.00
2019-04-16T23:38:00.661Z,88.20
2019-04-16T23:40:30.810Z,88.00
2019-04-16T23:43:18.696Z,87.80
2019-04-16T23:45:53.313Z,87.80
2019-04-16T23:48:28.447Z,87.40
2019-04-16T23:51:03.602Z,87.10
2019-04-16T23:53:40.418Z,87.20
2019-04-16T23:56:14.027Z,87.10
2019-04-16T23:59:01.397Z,87.10
